createdAt,value
2022-09-29T00:00:41.979Z,77.37
2022-09-29T00:03:11.026Z,77.51
2022-09-29T00:05:38.007Z,77.98
2022-09-29T00:08:05.141Z,77.88
2022-09-29T00:10:32.340Z,77.71
2022-09-29T00:12:59.478Z,77.81
2022-09-29T00:15:26.577Z,77.73
2022-09-29T00:18:17.894Z,77.86
2022-09-29T00:20:23.089Z,78.04
2022-09-29T00:22:51.189Z,78.13
2022-09-29T00:25:20.351Z,77.92
2022-09-29T00:27:48.287Z,77.87
2022-09-29T00:30:15.633Z,77.81
2022-09-29T00:32:42.644Z,77.76
2022-09-29T00:35:12.359Z,77.76
2022-09-29T00:37:39.653Z,77.68
2022-09-29T00:40:07.421Z,77.66
2022-09-29T00:42:34.524Z,77.61
2022-09-29T00:45:21.858Z,77.75
2022-09-29T00:47:58.599Z,77.89
2022-09-29T00:50:35.249Z,77.98
2022-09-29T00:53:03.671Z,77.97
2022-09-29T00:55:34.427Z,77.99
2022-09-29T00:58:17.177Z,78.01
2022-09-29T01:00:44.267Z,78.14
2022-09-29T01:03:19.080Z,78.11
2022-09-29T01:05:53.136Z,78.15
2022-09-29T01:08:26.995Z,78.13
2022-09-29T01:10:54.603Z,78.04
2022-09-29T01:13:21.830Z,77.99
2022-09-29T01:15:49.003Z,78.06
2022-09-29T01:18:16.182Z,78.08
2022-09-29T01:20:56.078Z,78.05
2022-09-29T01:23:29.810Z,78.10
2022-09-29T01:26:12.295Z,78.08
2022-09-29T01:28:59.835Z,78.19
2022-09-29T01:31:36.386Z,78.25
2022-09-29T01:34:07.283Z,78.30
2022-09-29T01:36:50.373Z,78.44
2022-09-29T01:39:36.190Z,78.45
2022-09-29T01:42:18.771Z,78.43
2022-09-29T01:45:08.089Z,79.03
2022-09-29T01:47:37.991Z,78.87
2022-09-29T01:50:14.636Z,78.89
2022-09-29T01:52:48.172Z,78.98
2022-09-29T01:55:21.403Z,79.02
2022-09-29T01:58:04.716Z,79.38
2022-09-29T02:00:38.316Z,79.24
2022-09-29T02:03:14.963Z,79.42
2022-09-29T02:05:48.569Z,79.41
2022-09-29T02:08:25.582Z,79.46
2022-09-29T02:11:05.589Z,79.50
2022-09-29T02:13:37.165Z,79.68
2022-09-29T02:16:05.531Z,79.84
2022-09-29T02:18:36.640Z,79.77
2022-09-29T02:21:03.857Z,79.76
2022-09-29T02:23:31.267Z,79.71
2022-09-29T02:25:59.919Z,79.74
2022-09-29T02:28:27.711Z,79.95
2022-09-29T02:30:55.046Z,79.88
2022-09-29T02:33:24.068Z,79.93
2022-09-29T02:36:00.976Z,79.93
2022-09-29T02:38:47.024Z,79.95
2022-09-29T02:41:27.052Z,80.01
2022-09-29T02:44:04.111Z,79.95
2022-09-29T02:46:47.044Z,79.98
2022-09-29T02:49:37.949Z,80.05
2022-09-29T02:52:11.905Z,80.12
2022-09-29T02:55:10.298Z,80.18
2022-09-29T02:57:53.225Z,80.20
2022-09-29T03:00:23.715Z,80.20
2022-09-29T03:02:50.850Z,80.14
2022-09-29T03:05:20.619Z,80.38
2022-09-29T03:07:48.271Z,80.35
2022-09-29T03:10:18.001Z,80.40
2022-09-29T03:12:46.744Z,80.48
2022-09-29T03:15:14.193Z,80.36
2022-09-29T03:17:41.534Z,80.80
2022-09-29T03:20:09.531Z,80.49
2022-09-29T03:22:36.902Z,80.54
2022-09-29T03:25:06.373Z,80.75
2022-09-29T03:27:36.074Z,80.74
2022-09-29T03:30:04.542Z,80.57
2022-09-29T03:32:33.171Z,80.61
2022-09-29T03:35:00.537Z,80.85
2022-09-29T03:37:28.005Z,80.67
2022-09-29T03:39:55.590Z,80.79
2022-09-29T03:42:23.759Z,80.78
2022-09-29T03:44:51.216Z,80.88
2022-09-29T03:47:18.457Z,80.78
2022-09-29T03:49:45.764Z,80.80
2022-09-29T03:52:13.043Z,80.70
2022-09-29T03:54:40.560Z,80.60
2022-09-29T03:57:08.054Z,80.66
2022-09-29T03:59:35.385Z,80.57
2022-09-29T04:02:02.824Z,80.57
2022-09-29T04:04:30.140Z,80.59
2022-09-29T04:06:57.288Z,80.47
2022-09-29T04:09:24.731Z,80.52
2022-09-29T04:11:51.997Z,80.69
2022-09-29T04:14:19.723Z,80.40
2022-09-29T04:16:48.280Z,80.35
2022-09-29T04:19:15.730Z,80.38
2022-09-29T04:21:43.072Z,80.23
2022-09-29T04:24:10.508Z,80.19
2022-09-29T04:26:39.492Z,80.14
2022-09-29T04:29:07.234Z,80.09
2022-09-29T04:31:34.733Z,80.07
2022-09-29T04:34:02.385Z,80.16
2022-09-29T04:36:29.734Z,80.36
2022-09-29T04:38:57.331Z,80.31
2022-09-29T04:41:24.605Z,80.27
2022-09-29T04:43:52.099Z,80.39
2022-09-29T04:46:21.068Z,80.34
2022-09-29T04:48:48.453Z,80.39
2022-09-29T04:51:15.639Z,80.45
2022-09-29T04:53:42.994Z,80.49
2022-09-29T04:56:10.926Z,80.57
2022-09-29T04:58:38.108Z,80.41
2022-09-29T05:01:07.258Z,80.28
2022-09-29T05:03:34.744Z,80.16
2022-09-29T05:06:02.005Z,80.04
2022-09-29T05:08:29.735Z,80.01
2022-09-29T05:10:59.075Z,79.97
2022-09-29T05:13:27.786Z,80.00
2022-09-29T05:16:00.798Z,79.90
2022-09-29T05:18:35.163Z,79.86
2022-09-29T05:21:26.568Z,79.95
2022-09-29T05:23:35.344Z,80.27
2022-09-29T05:26:05.309Z,80.27
2022-09-29T05:28:33.240Z,80.12
2022-09-29T05:31:07.738Z,79.72
2022-09-29T05:33:45.706Z,77.87
2022-09-29T05:36:29.844Z,76.38
2022-09-29T05:38:59.669Z,76.69
2022-09-29T05:41:28.460Z,74.74
2022-09-29T05:44:00.109Z,72.77
2022-09-29T05:46:31.580Z,72.88
2022-09-29T05:49:02.062Z,73.52
2022-09-29T05:51:31.277Z,74.26
2022-09-29T05:54:00.374Z,73.64
2022-09-29T05:56:27.613Z,73.27
2022-09-29T05:58:55.638Z,72.09
2022-09-29T06:01:25.056Z,71.00
2022-09-29T06:03:56.044Z,70.36
2022-09-29T06:06:26.680Z,70.46
2022-09-29T06:08:55.258Z,70.02
2022-09-29T06:11:25.387Z,70.24
2022-09-29T06:13:53.819Z,69.88
2022-09-29T06:16:24.195Z,69.69
2022-09-29T06:18:51.658Z,69.49
2022-09-29T06:21:23.656Z,69.43
2022-09-29T06:23:53.126Z,68.65
2022-09-29T06:26:24.206Z,68.01
2022-09-29T06:28:51.825Z,66.74
2022-09-29T06:31:21.039Z,66.32
2022-09-29T06:33:48.488Z,65.50
2022-09-29T06:36:40.502Z,65.41
2022-09-29T06:39:10.779Z,64.65
2022-09-29T06:41:38.378Z,63.56
2022-09-29T06:44:07.159Z,62.71
2022-09-29T06:46:35.256Z,61.93
2022-09-29T06:49:02.823Z,62.28
2022-09-29T06:51:42.935Z,61.04
2022-09-29T06:54:09.445Z,59.91
2022-09-29T06:56:29.272Z,59.93
2022-09-29T06:58:56.622Z,57.46
2022-09-29T07:01:24.243Z,56.58
2022-09-29T07:03:52.036Z,57.64
2022-09-29T07:06:23.999Z,56.55
2022-09-29T07:08:57.556Z,57.44
2022-09-29T07:11:25.888Z,56.76
2022-09-29T07:13:55.253Z,56.87
2022-09-29T07:16:24.296Z,56.83
2022-09-29T07:18:52.248Z,56.26
2022-09-29T07:21:20.821Z,56.31
2022-09-29T07:23:52.501Z,56.15
2022-09-29T07:26:19.848Z,56.48
2022-09-29T07:28:47.270Z,55.93
2022-09-29T07:31:18.445Z,56.77
2022-09-29T07:33:47.130Z,56.79
2022-09-29T07:36:16.134Z,57.31
2022-09-29T07:38:45.812Z,57.49
2022-09-29T07:41:13.178Z,57.29
2022-09-29T07:43:41.061Z,56.92
2022-09-29T07:46:08.849Z,57.42
2022-09-29T07:48:37.624Z,56.64
2022-09-29T07:51:07.626Z,55.71
2022-09-29T07:53:36.862Z,56.65
2022-09-29T07:56:12.419Z,56.89
2022-09-29T07:58:40.085Z,56.10
2022-09-29T08:01:11.202Z,56.12
2022-09-29T08:03:40.696Z,54.64
2022-09-29T08:06:08.829Z,55.05
2022-09-29T08:08:37.379Z,54.85
2022-09-29T08:11:06.272Z,54.37
2022-09-29T08:13:35.532Z,54.69
2022-09-29T08:16:06.621Z,54.87
2022-09-29T08:18:35.349Z,53.55
2022-09-29T08:21:04.060Z,54.12
2022-09-29T08:23:38.020Z,54.01
2022-09-29T08:26:07.640Z,53.64
2022-09-29T08:28:37.024Z,53.90
2022-09-29T08:31:06.816Z,53.49
2022-09-29T08:33:35.388Z,52.87
2022-09-29T08:36:05.480Z,54.08
2022-09-29T08:38:32.766Z,52.51
2022-09-29T08:41:02.971Z,52.84
2022-09-29T08:43:38.926Z,51.21
2022-09-29T08:46:09.986Z,51.41
2022-09-29T08:48:54.385Z,50.74
2022-09-29T08:51:40.795Z,50.53
2022-09-29T08:54:03.994Z,51.35
2022-09-29T08:56:33.387Z,51.81
2022-09-29T08:59:00.763Z,50.44
2022-09-29T09:01:40.586Z,48.88
2022-09-29T09:04:15.257Z,49.62
2022-09-29T09:06:54.972Z,49.06
2022-09-29T09:09:28.956Z,47.56
2022-09-29T09:12:30.563Z,47.27
2022-09-29T09:15:16.024Z,47.49
2022-09-29T09:18:11.679Z,44.79
2022-09-29T09:20:56.181Z,43.21
2022-09-29T09:23:28.688Z,43.12
2022-09-29T09:26:05.581Z,45.49
2022-09-29T09:28:42.214Z,45.93
2022-09-29T09:31:20.705Z,47.03
2022-09-29T09:34:08.611Z,45.73
2022-09-29T09:37:09.415Z,46.39
2022-09-29T09:40:08.388Z,46.47
2022-09-29T09:42:45.368Z,46.26
2022-09-29T09:45:41.876Z,46.37
2022-09-29T09:48:20.685Z,46.59
2022-09-29T09:50:49.055Z,45.69
2022-09-29T09:53:33.634Z,45.01
2022-09-29T09:56:08.762Z,45.91
2022-09-29T09:59:04.158Z,46.33
2022-09-29T10:01:31.823Z,46.18
2022-09-29T10:04:00.321Z,46.02
2022-09-29T10:06:28.376Z,46.34
2022-09-29T10:08:55.872Z,45.77
2022-09-29T10:11:30.095Z,45.55
2022-09-29T10:14:25.565Z,43.28
2022-09-29T10:16:56.660Z,42.39
2022-09-29T10:19:44.101Z,44.34
2022-09-29T10:22:15.025Z,44.29
2022-09-29T10:24:42.374Z,44.52
2022-09-29T10:27:10.691Z,45.52
2022-09-29T10:29:40.278Z,45.03
2022-09-29T10:32:16.401Z,45.20
2022-09-29T10:34:54.316Z,45.17
2022-09-29T10:37:24.307Z,45.63
2022-09-29T10:39:58.158Z,46.36
2022-09-29T10:42:33.720Z,46.70
2022-09-29T10:45:04.502Z,46.78
2022-09-29T10:47:33.502Z,46.86
2022-09-29T10:50:16.288Z,46.86
2022-09-29T10:52:47.127Z,46.62
2022-09-29T10:55:23.422Z,46.64
2022-09-29T10:57:54.024Z,46.80
2022-09-29T11:00:35.442Z,47.21
2022-09-29T11:03:06.490Z,47.83
2022-09-29T11:05:35.585Z,48.02
2022-09-29T11:08:02.981Z,48.12
2022-09-29T11:10:36.326Z,48.65
2022-09-29T11:13:25.242Z,48.56
2022-09-29T11:15:52.481Z,48.63
2022-09-29T11:18:23.797Z,48.18
2022-09-29T11:20:54.685Z,48.14
2022-09-29T11:23:40.919Z,48.23
2022-09-29T11:26:17.965Z,48.31
2022-09-29T11:28:54.901Z,48.23
2022-09-29T11:31:47.387Z,47.96
2022-09-29T11:34:33.630Z,47.89
2022-09-29T11:37:06.407Z,48.63
2022-09-29T11:39:44.274Z,49.17
2022-09-29T11:42:21.443Z,49.93
2022-09-29T11:45:03.441Z,50.02
2022-09-29T11:47:56.108Z,50.43
2022-09-29T11:50:43.739Z,51.02
2022-09-29T11:53:18.177Z,51.69
2022-09-29T11:56:04.415Z,52.15
2022-09-29T11:58:41.360Z,53.28
2022-09-29T12:01:31.844Z,54.75
2022-09-29T12:04:11.711Z,55.76
2022-09-29T12:06:53.962Z,55.78
2022-09-29T12:09:44.812Z,55.99
2022-09-29T12:12:28.849Z,56.70
2022-09-29T12:15:19.577Z,57.45
2022-09-29T12:17:54.067Z,57.37
2022-09-29T12:20:28.546Z,57.84
2022-09-29T12:22:58.116Z,58.29
2022-09-29T12:25:27.889Z,58.92
2022-09-29T12:27:59.515Z,59.52
2022-09-29T12:30:30.554Z,60.59
2022-09-29T12:33:06.392Z,61.10
2022-09-29T12:35:56.970Z,61.61
2022-09-29T12:38:34.850Z,62.29
2022-09-29T12:41:23.362Z,62.98
2022-09-29T12:43:57.077Z,63.55
2022-09-29T12:46:35.618Z,64.08
2022-09-29T12:49:28.564Z,64.37
2022-09-29T12:51:57.433Z,65.23
2022-09-29T12:54:46.943Z,66.19
2022-09-29T12:57:17.953Z,67.42
2022-09-29T12:59:58.011Z,67.59
2022-09-29T13:02:36.042Z,69.06
2022-09-29T13:05:16.308Z,69.43
2022-09-29T13:08:19.031Z,69.84
2022-09-29T13:11:16.222Z,70.12
2022-09-29T13:14:01.261Z,71.44
2022-09-29T13:16:47.414Z,71.26
2022-09-29T13:19:56.899Z,71.67
2022-09-29T13:22:20.682Z,71.59
2022-09-29T13:25:20.524Z,72.48
2022-09-29T13:27:49.672Z,72.58
2022-09-29T13:30:21.580Z,73.03
2022-09-29T13:32:52.486Z,73.03
2022-09-29T13:35:23.435Z,74.40
2022-09-29T13:37:53.843Z,73.98
2022-09-29T13:40:24.798Z,74.46
2022-09-29T13:42:55.190Z,74.80
2022-09-29T13:45:31.479Z,77.03
2022-09-29T13:47:58.871Z,76.87
2022-09-29T13:50:50.297Z,76.29
2022-09-29T13:53:33.180Z,76.47
2022-09-29T13:56:06.962Z,76.95
2022-09-29T13:58:38.727Z,77.18
2022-09-29T14:01:07.896Z,77.11
2022-09-29T14:03:37.946Z,77.64
2022-09-29T14:06:39.533Z,78.44
2022-09-29T14:09:15.946Z,78.79
2022-09-29T14:11:49.746Z,78.79
2022-09-29T14:14:22.023Z,78.90
2022-09-29T14:17:16.923Z,79.30
2022-09-29T14:19:54.022Z,79.05
2022-09-29T14:22:37.270Z,79.18
2022-09-29T14:25:12.492Z,78.98
2022-09-29T14:28:00.706Z,80.43
2022-09-29T14:30:40.892Z,80.53
2022-09-29T14:33:18.186Z,79.83
2022-09-29T14:35:55.928Z,81.08
2022-09-29T14:38:34.841Z,81.95
2022-09-29T14:41:09.797Z,80.60
2022-09-29T14:43:46.053Z,80.89
2022-09-29T14:46:47.622Z,80.39
2022-09-29T14:50:01.105Z,80.57
2022-09-29T14:52:49.641Z,79.99
2022-09-29T14:55:40.333Z,80.24
2022-09-29T14:58:28.818Z,80.31
2022-09-29T15:01:12.541Z,80.21
2022-09-29T15:03:46.604Z,80.17
2022-09-29T15:06:20.354Z,80.44
2022-09-29T15:09:03.894Z,80.93
2022-09-29T15:11:45.584Z,80.39
2022-09-29T15:14:27.750Z,80.51
2022-09-29T15:17:19.884Z,80.74
2022-09-29T15:20:10.781Z,80.67
2022-09-29T15:22:56.538Z,81.05
2022-09-29T15:25:28.965Z,80.71
2022-09-29T15:27:59.449Z,80.63
2022-09-29T15:30:28.371Z,80.73
2022-09-29T15:33:16.167Z,80.61
2022-09-29T15:35:47.611Z,80.86
2022-09-29T15:38:19.363Z,81.08
2022-09-29T15:40:55.577Z,80.74
2022-09-29T15:43:27.414Z,80.71
2022-09-29T15:46:03.951Z,80.88
2022-09-29T15:48:31.653Z,81.02
2022-09-29T15:51:01.042Z,80.93
2022-09-29T15:53:28.575Z,81.31
2022-09-29T15:55:56.978Z,81.02
2022-09-29T15:58:30.886Z,81.18
2022-09-29T16:01:04.684Z,81.09
2022-09-29T16:03:43.086Z,81.22
2022-09-29T16:06:24.074Z,81.11
2022-09-29T16:08:57.906Z,81.08
2022-09-29T16:11:29.001Z,81.21
2022-09-29T16:14:05.389Z,81.30
2022-09-29T16:16:35.830Z,81.27
2022-09-29T16:19:09.840Z,81.27
2022-09-29T16:21:38.017Z,81.37
2022-09-29T16:24:14.885Z,81.47
2022-09-29T16:26:47.212Z,81.67
2022-09-29T16:29:29.923Z,81.60
2022-09-29T16:32:23.725Z,81.77
2022-09-29T16:34:51.455Z,81.83
2022-09-29T16:37:18.757Z,81.91
2022-09-29T16:39:48.942Z,81.71
2022-09-29T16:42:25.052Z,81.95
2022-09-29T16:44:56.161Z,82.05
2022-09-29T16:47:27.100Z,81.71
2022-09-29T16:50:03.960Z,81.75
2022-09-29T16:52:44.054Z,82.02
2022-09-29T16:55:26.023Z,81.91
2022-09-29T16:58:13.184Z,81.92
2022-09-29T17:00:41.179Z,82.11
2022-09-29T17:03:09.446Z,82.21
2022-09-29T17:05:42.998Z,82.38
2022-09-29T17:08:21.253Z,82.64
2022-09-29T17:10:50.291Z,82.79
2022-09-29T17:13:18.347Z,83.00
2022-09-29T17:15:48.583Z,83.24
2022-09-29T17:18:17.712Z,83.25
2022-09-29T17:20:45.229Z,83.31
2022-09-29T17:23:12.912Z,83.60
2022-09-29T17:25:42.940Z,83.41
2022-09-29T17:28:14.525Z,83.45
2022-09-29T17:30:44.980Z,83.52
2022-09-29T17:33:15.628Z,83.70
2022-09-29T17:35:51.647Z,83.81
2022-09-29T17:38:17.760Z,84.01
2022-09-29T17:40:56.374Z,83.96
2022-09-29T17:43:23.993Z,84.31
2022-09-29T17:45:54.187Z,84.27
2022-09-29T17:48:22.097Z,84.13
2022-09-29T17:50:50.634Z,84.28
2022-09-29T17:53:18.688Z,84.26
2022-09-29T17:55:49.766Z,84.22
2022-09-29T17:58:18.837Z,84.40
2022-09-29T18:00:51.993Z,84.37
2022-09-29T18:03:21.007Z,84.51
2022-09-29T18:05:52.990Z,84.56
2022-09-29T18:08:21.313Z,84.27
2022-09-29T18:10:54.119Z,84.26
2022-09-29T18:13:23.074Z,84.24
2022-09-29T18:15:50.944Z,83.92
2022-09-29T18:18:20.214Z,84.27
2022-09-29T18:20:50.075Z,84.22
2022-09-29T18:23:20.319Z,84.35
2022-09-29T18:25:51.264Z,84.59
2022-09-29T18:28:19.134Z,84.87
2022-09-29T18:30:49.347Z,84.83
2022-09-29T18:33:18.462Z,84.86
2022-09-29T18:35:48.653Z,85.00
2022-09-29T18:38:16.369Z,85.05
2022-09-29T18:40:44.197Z,85.21
2022-09-29T18:43:12.837Z,85.10
2022-09-29T18:45:44.276Z,85.06
2022-09-29T18:48:13.355Z,85.13
2022-09-29T18:50:46.057Z,85.17
2022-09-29T18:53:16.059Z,85.19
2022-09-29T18:55:43.702Z,85.35
2022-09-29T18:58:16.857Z,85.27
2022-09-29T19:00:46.925Z,85.26
2022-09-29T19:03:14.300Z,85.32
2022-09-29T19:05:42.769Z,85.32
2022-09-29T19:08:12.194Z,85.72
2022-09-29T19:10:41.632Z,85.51
2022-09-29T19:13:13.345Z,85.57
2022-09-29T19:15:43.161Z,85.62
2022-09-29T19:18:14.391Z,85.80
2022-09-29T19:20:42.857Z,85.92
2022-09-29T19:23:10.221Z,85.81
2022-09-29T19:25:39.082Z,86.12
2022-09-29T19:28:08.033Z,86.06
2022-09-29T19:30:38.374Z,86.13
2022-09-29T19:33:07.718Z,85.99
2022-09-29T19:35:35.759Z,85.94
2022-09-29T19:38:04.211Z,86.07
2022-09-29T19:40:37.101Z,86.63
2022-09-29T19:43:05.352Z,86.22
2022-09-29T19:45:37.441Z,86.29
2022-09-29T19:48:06.724Z,86.22
2022-09-29T19:50:53.086Z,86.23
2022-09-29T19:53:21.766Z,86.27
2022-09-29T19:55:49.625Z,86.16
2022-09-29T19:58:16.908Z,86.43
2022-09-29T20:00:44.032Z,86.20
2022-09-29T20:03:12.988Z,86.15
2022-09-29T20:05:40.600Z,86.12
2022-09-29T20:08:08.096Z,86.06
2022-09-29T20:10:35.786Z,85.99
2022-09-29T20:13:03.198Z,85.97
2022-09-29T20:15:30.673Z,85.95
2022-09-29T20:17:58.077Z,85.91
2022-09-29T20:20:25.612Z,85.87
2022-09-29T20:22:54.050Z,85.85
2022-09-29T20:25:21.902Z,85.87
2022-09-29T20:27:51.293Z,86.05
2022-09-29T20:30:20.131Z,86.19
2022-09-29T20:32:47.878Z,86.20
2022-09-29T20:35:15.397Z,86.25
2022-09-29T20:37:42.726Z,86.28
2022-09-29T20:40:11.541Z,86.35
2022-09-29T20:42:42.206Z,86.28
2022-09-29T20:45:10.348Z,86.44
2022-09-29T20:47:38.209Z,86.55
2022-09-29T20:50:06.171Z,86.38
2022-09-29T20:52:33.538Z,86.58
2022-09-29T20:55:02.900Z,87.05
2022-09-29T20:57:31.450Z,86.87
2022-09-29T20:59:58.979Z,87.22
2022-09-29T21:02:26.687Z,87.00
2022-09-29T21:04:58.014Z,87.02
2022-09-29T21:07:37.699Z,87.03
2022-09-29T21:10:06.568Z,86.99
2022-09-29T21:12:33.845Z,87.01
2022-09-29T21:15:02.306Z,87.06
2022-09-29T21:17:30.433Z,86.97
2022-09-29T21:19:57.846Z,86.99
2022-09-29T21:22:27.619Z,87.03
2022-09-29T21:24:54.183Z,87.03
2022-09-29T21:27:23.125Z,86.98
2022-09-29T21:29:50.363Z,87.04
2022-09-29T21:32:17.925Z,86.93
2022-09-29T21:34:45.201Z,87.00
2022-09-29T21:37:12.476Z,87.03
2022-09-29T21:39:39.676Z,87.08
2022-09-29T21:42:07.144Z,87.09
2022-09-29T21:44:34.465Z,87.06
2022-09-29T21:47:01.689Z,87.07
2022-09-29T21:49:28.838Z,87.15
2022-09-29T21:51:59.971Z,87.10
2022-09-29T21:54:25.764Z,87.13
2022-09-29T21:56:53.163Z,87.12
2022-09-29T21:59:22.073Z,87.13
2022-09-29T22:01:51.383Z,87.26
2022-09-29T22:04:19.705Z,87.23
2022-09-29T22:06:47.406Z,87.27
2022-09-29T22:09:18.240Z,87.35
2022-09-29T22:11:48.072Z,87.45
2022-09-29T22:14:16.213Z,87.47
2022-09-29T22:16:43.684Z,87.40
2022-09-29T22:19:23.073Z,87.60
2022-09-29T22:21:41.736Z,87.61
2022-09-29T22:24:11.285Z,87.56
2022-09-29T22:26:39.890Z,87.58
2022-09-29T22:29:07.635Z,87.66
2022-09-29T22:31:35.030Z,87.69
2022-09-29T22:34:03.860Z,87.83
2022-09-29T22:36:33.040Z,88.00
2022-09-29T22:39:03.607Z,87.85
2022-09-29T22:41:32.619Z,87.91
2022-09-29T22:44:00.688Z,88.05
2022-09-29T22:46:29.402Z,88.12
2022-09-29T22:48:57.475Z,88.04
2022-09-29T22:51:24.908Z,88.12
2022-09-29T22:53:52.253Z,88.06
2022-09-29T22:56:21.893Z,87.98
2022-09-29T22:58:49.342Z,87.94
2022-09-29T23:01:20.169Z,87.91
2022-09-29T23:03:48.448Z,87.83
2022-09-29T23:06:15.838Z,87.84
2022-09-29T23:08:43.282Z,87.71
2022-09-29T23:11:18.955Z,87.71
2022-09-29T23:13:46.778Z,87.69
2022-09-29T23:16:16.417Z,87.54
2022-09-29T23:18:45.840Z,87.60
2022-09-29T23:21:17.817Z,87.52
2022-09-29T23:23:54.561Z,87.59
2022-09-29T23:26:24.062Z,87.85
2022-09-29T23:28:52.186Z,87.74
2022-09-29T23:31:19.677Z,87.75
2022-09-29T23:33:55.107Z,87.72
2022-09-29T23:36:23.527Z,87.71
2022-09-29T23:39:09.570Z,87.80
2022-09-29T23:41:39.093Z,87.85
2022-09-29T23:44:08.946Z,87.84
2022-09-29T23:46:38.135Z,87.77
2022-09-29T23:49:10.971Z,87.78
2022-09-29T23:51:41.312Z,87.76
2022-09-29T23:54:11.581Z,87.64
2022-09-29T23:56:39.180Z,87.61
2022-09-29T23:59:06.544Z,87.59
